createdAt,value
2018-06-28T00:02:05.800Z,99.90
2018-06-28T00:04:35.090Z,99.90
2018-06-28T00:07:03.350Z,99.90
2018-06-28T00:09:32.703Z,99.90
2018-06-28T00:12:00.949Z,99.90
2018-06-28T00:14:29.182Z,99.90
2018-06-28T00:16:57.349Z,99.90
2018-06-28T00:19:26.571Z,99.90
2018-06-28T00:21:55.811Z,99.90
2018-06-28T00:24:26.101Z,99.90
2018-06-28T00:26:54.293Z,99.90
2018-06-28T00:29:24.732Z,99.90
2018-06-28T00:31:52.929Z,99.90
2018-06-28T00:34:23.190Z,99.90
2018-06-28T00:36:52.674Z,99.90
2018-06-28T00:39:21.911Z,99.90
2018-06-28T00:41:50.062Z,99.90
2018-06-28T00:44:20.325Z,99.90
2018-06-28T00:46:48.535Z,99.90
2018-06-28T00:49:17.729Z,99.90
2018-06-28T00:51:45.913Z,99.90
2018-06-28T00:54:14.090Z,99.90
2018-06-28T00:56:42.789Z,99.90
2018-06-28T00:59:10.998Z,99.90
2018-06-28T01:01:39.184Z,99.90
2018-06-28T01:04:07.395Z,99.90
2018-06-28T01:06:35.629Z,99.90
2018-06-28T01:09:06.060Z,99.90
2018-06-28T01:11:35.549Z,99.90
2018-06-28T01:14:04.941Z,99.90
2018-06-28T01:16:33.424Z,99.90
2018-06-28T01:19:01.770Z,99.90
2018-06-28T01:21:31.039Z,99.90
2018-06-28T01:24:01.414Z,99.90
2018-06-28T01:26:41.300Z,99.90
2018-06-28T01:29:09.538Z,99.90
2018-06-28T01:31:43.365Z,99.90
2018-06-28T01:34:15.721Z,99.90
2018-06-28T01:36:43.994Z,99.90
2018-06-28T01:39:12.438Z,99.90
2018-06-28T01:41:53.836Z,99.90
2018-06-28T01:44:22.097Z,99.90
2018-06-28T01:46:50.428Z,99.90
2018-06-28T01:49:18.700Z,99.90
2018-06-28T01:51:47.036Z,99.90
2018-06-28T01:54:15.334Z,99.90
2018-06-28T01:56:43.614Z,99.90
2018-06-28T01:59:11.899Z,99.90
2018-06-28T02:01:40.590Z,99.90
2018-06-28T02:04:13.433Z,99.90
2018-06-28T02:06:41.657Z,99.90
2018-06-28T02:09:10.618Z,99.90
2018-06-28T02:11:38.874Z,99.90
2018-06-28T02:14:08.181Z,99.90
2018-06-28T02:16:42.394Z,99.90
2018-06-28T02:19:10.845Z,99.90
2018-06-28T02:21:39.110Z,99.90
2018-06-28T02:24:08.453Z,99.90
2018-06-28T02:26:37.844Z,99.90
2018-06-28T02:29:07.007Z,99.90
2018-06-28T02:31:35.553Z,99.90
2018-06-28T02:34:03.706Z,99.90
2018-06-28T02:36:31.990Z,99.90
2018-06-28T02:39:01.385Z,99.90
2018-06-28T02:41:29.608Z,99.90
2018-06-28T02:43:57.892Z,99.90
2018-06-28T02:46:29.810Z,99.90
2018-06-28T02:48:58.223Z,99.90
2018-06-28T02:51:27.675Z,99.90
2018-06-28T02:53:55.912Z,99.90
2018-06-28T02:56:33.742Z,99.90
2018-06-28T02:59:03.230Z,99.90
2018-06-28T03:01:31.525Z,99.90
2018-06-28T03:03:59.689Z,99.90
2018-06-28T03:06:27.969Z,99.90
2018-06-28T03:09:00.041Z,99.90
2018-06-28T03:11:28.311Z,99.90
2018-06-28T03:13:56.493Z,99.90
2018-06-28T03:16:25.791Z,99.90
2018-06-28T03:18:54.068Z,99.90
2018-06-28T03:21:23.499Z,99.90
2018-06-28T03:23:51.717Z,99.90
2018-06-28T03:26:19.994Z,99.90
2018-06-28T03:28:48.285Z,99.90
2018-06-28T03:31:16.673Z,99.90
2018-06-28T03:33:47.025Z,99.90
2018-06-28T03:36:15.281Z,99.90
2018-06-28T03:38:45.954Z,99.90
2018-06-28T03:41:14.389Z,99.90
2018-06-28T03:43:42.701Z,99.90
2018-06-28T03:46:14.418Z,99.90
2018-06-28T03:48:46.685Z,99.90
2018-06-28T03:51:15.957Z,99.90
2018-06-28T03:53:47.103Z,99.90
2018-06-28T03:56:18.564Z,99.90
2018-06-28T03:58:46.919Z,99.90
2018-06-28T04:01:15.442Z,99.90
2018-06-28T04:04:05.855Z,99.90
2018-06-28T04:06:34.150Z,99.90
2018-06-28T04:09:02.722Z,99.90
2018-06-28T04:11:34.764Z,99.90
2018-06-28T04:14:08.743Z,99.90
2018-06-28T04:16:37.201Z,99.90
2018-06-28T04:19:05.452Z,99.90
2018-06-28T04:21:33.692Z,99.90
2018-06-28T04:24:01.973Z,99.90
2018-06-28T04:26:30.229Z,99.90
2018-06-28T04:29:01.844Z,99.90
2018-06-28T04:31:30.188Z,99.90
2018-06-28T04:33:58.495Z,99.90
2018-06-28T04:36:26.721Z,99.90
2018-06-28T04:38:55.001Z,99.90
2018-06-28T04:41:23.520Z,99.90
2018-06-28T04:43:51.880Z,99.90
2018-06-28T04:46:20.787Z,99.90
2018-06-28T04:48:49.573Z,99.90
2018-06-28T04:51:17.940Z,99.90
2018-06-28T04:53:47.429Z,99.90
2018-06-28T04:56:15.617Z,99.90
2018-06-28T04:58:44.295Z,99.90
2018-06-28T05:01:13.743Z,99.90
2018-06-28T05:03:42.112Z,99.90
2018-06-28T05:06:10.445Z,99.90
2018-06-28T05:08:38.710Z,99.90
2018-06-28T05:11:10.408Z,99.90
2018-06-28T05:13:38.925Z,99.90
2018-06-28T05:16:10.836Z,99.90
2018-06-28T05:18:40.088Z,99.90
2018-06-28T05:21:08.453Z,99.90
2018-06-28T05:23:37.838Z,99.90
2018-06-28T05:26:06.009Z,99.90
2018-06-28T05:28:44.152Z,99.90
2018-06-28T05:31:12.553Z,99.90
2018-06-28T05:33:41.141Z,99.90
2018-06-28T05:36:11.507Z,99.90
2018-06-28T05:38:43.697Z,99.90
2018-06-28T05:41:12.007Z,99.90
2018-06-28T05:43:40.280Z,99.90
2018-06-28T05:46:10.595Z,99.90
2018-06-28T05:48:41.654Z,99.90
2018-06-28T05:51:11.357Z,99.90
2018-06-28T05:53:42.755Z,99.90
2018-06-28T05:56:11.758Z,99.90
2018-06-28T05:58:40.687Z,99.90
2018-06-28T06:01:09.541Z,99.90
2018-06-28T06:03:43.465Z,99.90
2018-06-28T06:06:13.496Z,99.90
2018-06-28T06:08:42.286Z,99.90
2018-06-28T06:11:11.230Z,99.90
2018-06-28T06:13:42.099Z,99.90
2018-06-28T06:16:10.911Z,99.90
2018-06-28T06:18:39.766Z,99.90
2018-06-28T06:21:08.832Z,99.90
2018-06-28T06:23:37.916Z,99.90
2018-06-28T06:26:06.878Z,99.90
2018-06-28T06:28:35.768Z,99.90
2018-06-28T06:31:04.829Z,99.90
2018-06-28T06:33:33.677Z,99.90
2018-06-28T06:36:02.495Z,99.90
2018-06-28T06:38:31.590Z,99.90
2018-06-28T06:41:00.415Z,99.90
2018-06-28T06:43:30.351Z,99.90
2018-06-28T06:46:00.121Z,99.90
2018-06-28T06:48:28.898Z,99.90
2018-06-28T06:50:58.815Z,99.90
2018-06-28T06:53:27.557Z,99.90
2018-06-28T06:56:00.390Z,99.90
2018-06-28T06:58:29.981Z,99.90
2018-06-28T07:01:00.075Z,99.90
2018-06-28T07:03:28.867Z,99.90
2018-06-28T07:05:57.814Z,99.90
2018-06-28T07:08:26.680Z,99.90
2018-06-28T07:10:57.796Z,99.90
2018-06-28T07:13:26.563Z,99.90
2018-06-28T07:15:59.057Z,99.90
2018-06-28T07:18:27.778Z,99.90
2018-06-28T07:20:56.598Z,99.90
2018-06-28T07:23:25.363Z,99.90
2018-06-28T07:25:54.134Z,99.90
2018-06-28T07:28:23.994Z,99.90
2018-06-28T07:30:57.884Z,99.90
2018-06-28T07:33:26.702Z,99.90
2018-06-28T07:35:55.490Z,99.90
2018-06-28T07:38:24.265Z,99.90
2018-06-28T07:40:55.113Z,99.90
2018-06-28T07:43:26.138Z,99.90
2018-06-28T07:46:00.263Z,99.90
2018-06-28T07:48:30.018Z,99.90
2018-06-28T07:50:58.998Z,99.90
2018-06-28T07:53:27.792Z,99.90
2018-06-28T07:56:01.816Z,99.90
2018-06-28T07:58:30.602Z,99.90
2018-06-28T08:01:04.159Z,99.90
2018-06-28T08:03:32.965Z,99.90
2018-06-28T08:06:01.791Z,99.90
2018-06-28T08:08:30.637Z,99.90
2018-06-28T08:10:59.798Z,99.90
2018-06-28T08:13:28.554Z,99.90
2018-06-28T08:15:57.328Z,99.90
2018-06-28T08:18:26.094Z,99.90
2018-06-28T08:20:54.867Z,99.90
2018-06-28T08:23:23.830Z,99.90
2018-06-28T08:25:55.386Z,99.90
2018-06-28T08:31:11.852Z,99.90
2018-06-28T08:33:40.683Z,99.90
2018-06-28T08:36:09.540Z,99.90
2018-06-28T08:38:43.467Z,99.90
2018-06-28T08:41:12.182Z,99.90
2018-06-28T08:43:40.943Z,99.90
2018-06-28T08:46:09.942Z,99.90
2018-06-28T08:48:38.731Z,99.90
2018-06-28T08:51:07.522Z,99.90
2018-06-28T08:53:36.348Z,99.90
2018-06-28T08:56:05.406Z,99.90
2018-06-28T08:58:35.269Z,99.90
2018-06-28T09:01:04.182Z,99.90
2018-06-28T09:03:33.021Z,99.90
2018-06-28T09:06:03.030Z,99.90
2018-06-28T09:08:32.054Z,99.90
2018-06-28T09:11:01.893Z,99.90
2018-06-28T09:13:32.967Z,99.90
2018-06-28T09:16:01.797Z,99.90
2018-06-28T09:18:32.769Z,99.90
2018-06-28T09:21:01.582Z,99.90
2018-06-28T09:23:31.369Z,99.90
2018-06-28T09:26:00.177Z,99.90
2018-06-28T09:28:28.986Z,99.90
2018-06-28T09:30:57.948Z,99.90
2018-06-28T09:33:30.457Z,99.90
2018-06-28T09:35:59.262Z,99.90
2018-06-28T09:38:30.326Z,99.90
2018-06-28T09:41:00.014Z,99.90
2018-06-28T09:43:28.829Z,99.90
2018-06-28T09:45:57.798Z,99.90
2018-06-28T09:48:26.546Z,99.90
2018-06-28T09:50:55.525Z,99.90
2018-06-28T09:53:25.472Z,99.90
2018-06-28T09:55:54.282Z,99.90
2018-06-28T09:58:25.245Z,99.90
2018-06-28T10:00:54.178Z,99.90
2018-06-28T10:03:23.961Z,99.90
2018-06-28T10:05:52.773Z,99.90
2018-06-28T10:08:21.586Z,99.90
2018-06-28T10:10:55.929Z,99.90
2018-06-28T10:13:25.209Z,99.90
2018-06-28T10:15:53.919Z,99.90
2018-06-28T10:18:22.685Z,99.90
2018-06-28T10:20:53.718Z,99.90
2018-06-28T10:23:22.469Z,99.90
2018-06-28T10:25:51.238Z,99.90
2018-06-28T10:28:20.085Z,99.90
2018-06-28T10:30:49.084Z,99.90
2018-06-28T10:33:17.872Z,99.90
2018-06-28T10:35:46.697Z,99.90
2018-06-28T10:38:15.638Z,99.90
2018-06-28T10:40:45.679Z,99.90
2018-06-28T10:43:15.157Z,99.90
2018-06-28T10:45:46.362Z,99.90
2018-06-28T10:48:18.287Z,99.90
2018-06-28T10:50:47.087Z,99.90
2018-06-28T10:53:16.070Z,99.90
2018-06-28T10:55:44.944Z,99.90
2018-06-28T10:58:13.935Z,99.90
2018-06-28T11:00:42.881Z,99.90
2018-06-28T11:03:11.645Z,99.90
2018-06-28T11:05:41.640Z,99.90
2018-06-28T11:08:14.046Z,99.90
2018-06-28T11:10:45.040Z,99.90
2018-06-28T11:13:13.796Z,99.90
2018-06-28T11:15:42.868Z,99.90
2018-06-28T11:18:15.474Z,99.90
2018-06-28T11:20:44.302Z,99.90
2018-06-28T11:23:17.621Z,99.90
2018-06-28T11:25:47.652Z,99.90
2018-06-28T11:28:16.457Z,99.90
2018-06-28T11:30:46.626Z,99.90
2018-06-28T11:33:17.637Z,99.90
2018-06-28T11:35:48.726Z,99.90
2018-06-28T11:38:17.514Z,99.90
2018-06-28T11:40:46.286Z,99.90
2018-06-28T11:43:15.123Z,99.90
2018-06-28T11:45:43.857Z,99.90
2018-06-28T11:48:12.650Z,99.90
2018-06-28T11:50:41.356Z,99.90
2018-06-28T11:53:10.289Z,99.90
2018-06-28T11:55:40.181Z,99.90
2018-06-28T11:58:10.047Z,99.90
2018-06-28T12:00:40.138Z,99.90
2018-06-28T12:03:12.463Z,99.90
2018-06-28T12:05:41.406Z,99.90
2018-06-28T12:08:10.449Z,99.70
2018-06-28T12:10:43.958Z,98.20
2018-06-28T12:13:13.052Z,97.00
2018-06-28T12:15:42.835Z,97.00
2018-06-28T12:18:13.628Z,96.60
2018-06-28T12:20:43.466Z,96.00
2018-06-28T12:23:14.272Z,95.60
2018-06-28T12:25:44.998Z,94.80
2018-06-28T12:28:13.792Z,95.20
2018-06-28T12:30:43.406Z,95.40
2018-06-28T12:33:12.197Z,95.20
2018-06-28T12:35:41.071Z,95.40
2018-06-28T12:38:13.570Z,95.10
2018-06-28T12:40:42.433Z,94.50
2018-06-28T12:43:12.688Z,94.30
2018-06-28T12:45:42.518Z,93.30
2018-06-28T12:48:13.658Z,93.00
2018-06-28T12:50:42.795Z,93.10
2018-06-28T12:53:12.607Z,92.60
2018-06-28T12:56:48.600Z,93.00
2018-06-28T12:59:18.824Z,93.10
2018-06-28T13:01:48.019Z,92.70
2018-06-28T13:04:17.852Z,92.70
2018-06-28T13:06:46.600Z,92.00
2018-06-28T13:09:16.653Z,91.70
2018-06-28T13:11:45.714Z,91.60
2018-06-28T13:14:14.548Z,91.20
2018-06-28T13:16:43.601Z,90.80
2018-06-28T13:19:13.716Z,90.50
2018-06-28T13:21:43.640Z,90.00
2018-06-28T13:24:18.559Z,90.00
2018-06-28T13:26:47.351Z,90.20
2018-06-28T13:29:16.140Z,89.60
2018-06-28T13:31:48.035Z,90.00
2018-06-28T13:34:17.133Z,89.70
2018-06-28T13:36:45.895Z,89.20
2018-06-28T13:39:16.007Z,89.10
2018-06-28T13:41:45.335Z,89.20
2018-06-28T13:44:13.787Z,88.20
2018-06-28T13:46:43.478Z,88.40
2018-06-28T13:49:12.390Z,88.50
2018-06-28T13:51:43.115Z,88.10
2018-06-28T13:54:11.946Z,88.70
2018-06-28T13:56:40.854Z,89.10
2018-06-28T13:59:10.897Z,88.80
2018-06-28T14:01:42.050Z,88.00
2018-06-28T14:04:10.800Z,87.50
2018-06-28T14:06:39.639Z,87.50
2018-06-28T14:09:10.569Z,86.50
2018-06-28T14:11:39.578Z,86.30
2018-06-28T14:14:08.880Z,86.30
2018-06-28T14:16:37.653Z,84.70
2018-06-28T14:19:07.437Z,84.50
2018-06-28T14:21:36.210Z,84.50
2018-06-28T14:24:04.978Z,83.80
2018-06-28T14:26:33.787Z,82.70
2018-06-28T14:29:02.663Z,80.70
2018-06-28T14:31:32.512Z,81.90
2018-06-28T14:34:02.297Z,82.80
2018-06-28T14:36:31.407Z,82.70
2018-06-28T14:39:00.326Z,81.70
2018-06-28T14:41:29.056Z,82.00
2018-06-28T14:44:06.399Z,82.20
2018-06-28T14:46:35.149Z,82.40
2018-06-28T14:49:05.029Z,81.90
2018-06-28T14:51:34.817Z,81.40
2018-06-28T14:54:03.592Z,81.20
2018-06-28T14:56:32.531Z,81.10
2018-06-28T14:59:01.310Z,79.30
2018-06-28T15:01:30.162Z,78.80
2018-06-28T15:03:58.937Z,78.40
2018-06-28T15:06:27.722Z,78.80
2018-06-28T15:08:57.505Z,79.30
2018-06-28T15:11:26.300Z,78.90
2018-06-28T15:13:56.283Z,79.10
2018-06-28T15:16:25.129Z,79.20
2018-06-28T15:18:53.843Z,78.50
2018-06-28T15:21:22.556Z,78.00
2018-06-28T15:23:51.263Z,78.20
2018-06-28T15:26:20.221Z,78.50
2018-06-28T15:28:48.982Z,77.50
2018-06-28T15:31:21.175Z,77.40
2018-06-28T15:33:50.001Z,77.00
2018-06-28T15:36:25.927Z,77.00
2018-06-28T15:38:54.724Z,77.30
2018-06-28T15:41:28.045Z,77.30
2018-06-28T15:43:56.808Z,76.90
2018-06-28T15:46:25.653Z,76.30
2018-06-28T15:48:54.443Z,75.40
2018-06-28T15:51:23.250Z,75.40
2018-06-28T15:53:52.027Z,75.30
2018-06-28T15:56:20.813Z,75.40
2018-06-28T15:58:49.933Z,75.60
2018-06-28T16:01:27.200Z,75.80
2018-06-28T16:03:59.286Z,74.70
2018-06-28T16:06:28.160Z,74.80
2018-06-28T16:08:56.898Z,74.20
2018-06-28T16:11:25.717Z,74.60
2018-06-28T16:13:55.826Z,74.80
2018-06-28T16:16:24.665Z,74.20
2018-06-28T16:18:53.378Z,75.10
2018-06-28T16:21:22.157Z,75.90
2018-06-28T16:23:50.957Z,75.50
2018-06-28T16:26:19.796Z,76.50
2018-06-28T16:28:50.688Z,76.40
2018-06-28T16:31:19.771Z,76.70
2018-06-28T16:33:48.878Z,76.70
2018-06-28T16:36:18.838Z,76.90
2018-06-28T16:38:48.124Z,77.30
2018-06-28T16:41:18.627Z,77.90
2018-06-28T16:43:48.811Z,78.10
2018-06-28T16:46:17.980Z,78.00
2018-06-28T16:48:48.912Z,78.30
2018-06-28T16:51:17.726Z,77.90
2018-06-28T16:53:46.626Z,78.10
2018-06-28T16:56:15.506Z,77.40
2018-06-28T16:58:44.971Z,77.60
2018-06-28T17:01:18.827Z,77.80
2018-06-28T17:03:49.596Z,77.60
2018-06-28T17:06:18.497Z,78.00
2018-06-28T17:08:47.422Z,77.60
2018-06-28T17:11:16.267Z,78.00
2018-06-28T17:13:45.021Z,78.50
2018-06-28T17:16:13.845Z,77.80
2018-06-28T17:18:43.810Z,76.70
2018-06-28T17:21:13.686Z,76.30
2018-06-28T17:23:43.650Z,76.10
2018-06-28T17:26:12.540Z,76.00
2018-06-28T17:28:41.275Z,76.50
2018-06-28T17:31:10.173Z,75.70
2018-06-28T17:33:42.556Z,75.50
2018-06-28T17:36:11.410Z,75.30
2018-06-28T17:38:40.385Z,75.50
2018-06-28T17:41:09.255Z,75.90
2018-06-28T17:43:38.107Z,76.00
2018-06-28T17:46:08.130Z,76.10
2018-06-28T17:48:36.908Z,76.70
2018-06-28T17:51:07.964Z,77.50
2018-06-28T17:53:41.957Z,78.00
2018-06-28T17:56:10.789Z,77.50
2018-06-28T17:58:39.645Z,77.70
2018-06-28T18:01:08.784Z,77.60
2018-06-28T18:03:37.773Z,77.90
2018-06-28T18:06:07.974Z,78.00
2018-06-28T18:08:37.841Z,78.20
2018-06-28T18:11:07.319Z,78.70
2018-06-28T18:13:43.486Z,79.00
2018-06-28T18:16:12.226Z,78.90
2018-06-28T18:18:42.234Z,79.40
2018-06-28T18:21:11.125Z,79.20
2018-06-28T18:23:40.047Z,79.10
2018-06-28T18:26:08.949Z,79.40
2018-06-28T18:28:37.688Z,79.50
2018-06-28T18:31:07.618Z,79.20
2018-06-28T18:33:36.526Z,79.30
2018-06-28T18:36:05.470Z,79.30
2018-06-28T18:38:34.500Z,79.40
2018-06-28T18:41:03.696Z,79.90
2018-06-28T18:43:32.686Z,80.30
2018-06-28T18:46:01.592Z,80.30
2018-06-28T18:48:30.357Z,80.60
2018-06-28T18:50:59.186Z,80.20
2018-06-28T18:53:28.723Z,80.70
2018-06-28T18:55:57.645Z,81.50
2018-06-28T18:58:38.256Z,82.10
2018-06-28T19:01:07.067Z,82.80
2018-06-28T19:03:36.145Z,83.50
2018-06-28T19:06:04.999Z,84.00
2018-06-28T19:08:33.800Z,84.90
2018-06-28T19:11:02.533Z,85.70
2018-06-28T19:13:31.375Z,86.40
2018-06-28T19:16:05.585Z,87.10
2018-06-28T19:18:34.393Z,87.40
2018-06-28T19:21:12.269Z,87.60
2018-06-28T19:23:46.483Z,88.10
2018-06-28T19:26:15.536Z,88.60
2018-06-28T19:28:44.442Z,88.50
2018-06-28T19:31:18.887Z,89.00
2018-06-28T19:33:47.777Z,89.00
2018-06-28T19:36:18.694Z,89.30
2018-06-28T19:38:52.898Z,89.70
2018-06-28T19:41:29.274Z,89.50
2018-06-28T19:43:57.950Z,88.90
2018-06-28T19:46:30.354Z,88.90
2018-06-28T19:48:59.121Z,88.80
2018-06-28T19:51:33.222Z,89.10
2018-06-28T19:54:02.274Z,89.60
2018-06-28T19:56:31.280Z,89.80
2018-06-28T19:59:00.091Z,90.20
2018-06-28T20:01:34.244Z,90.40
2018-06-28T20:04:11.637Z,90.60
2018-06-28T20:06:47.010Z,90.70
2018-06-28T20:09:17.565Z,91.00
2018-06-28T20:11:46.486Z,91.30
2018-06-28T20:14:20.605Z,91.40
2018-06-28T20:16:54.853Z,91.60
2018-06-28T20:19:29.037Z,91.90
2018-06-28T20:21:57.873Z,92.00
2018-06-28T20:24:26.852Z,92.30
2018-06-28T20:27:01.718Z,92.40
2018-06-28T20:29:36.973Z,92.50
2018-06-28T20:32:11.201Z,93.10
2018-06-28T20:34:39.948Z,93.40
2018-06-28T20:37:23.455Z,93.90
2018-06-28T20:39:53.321Z,93.80
2018-06-28T20:42:23.221Z,94.20
2018-06-28T20:44:51.936Z,94.60
2018-06-28T20:47:21.972Z,94.70
2018-06-28T20:49:57.121Z,95.30
2018-06-28T20:52:25.877Z,95.70
2018-06-28T20:54:55.358Z,95.90
2018-06-28T20:57:25.724Z,96.30
2018-06-28T21:00:10.232Z,97.10
2018-06-28T21:02:41.065Z,97.40
2018-06-28T21:05:09.779Z,97.60
2018-06-28T21:07:39.573Z,97.80
2018-06-28T21:10:08.438Z,98.60
2018-06-28T21:12:37.239Z,99.50
2018-06-28T21:15:05.971Z,99.90
2018-06-28T21:17:38.010Z,99.90
2018-06-28T21:20:08.821Z,99.90
2018-06-28T21:22:38.570Z,99.90
2018-06-28T21:25:07.258Z,99.90
2018-06-28T21:27:35.970Z,99.90
2018-06-28T21:30:05.196Z,99.90
2018-06-28T21:32:35.077Z,99.90
2018-06-28T21:35:03.818Z,99.90
2018-06-28T21:37:32.593Z,99.90
2018-06-28T21:40:01.667Z,99.90
2018-06-28T21:42:30.840Z,99.90
2018-06-28T21:44:59.790Z,99.90
2018-06-28T21:47:29.295Z,99.90
2018-06-28T21:49:59.471Z,99.90
2018-06-28T21:52:31.446Z,99.90
2018-06-28T21:55:03.061Z,99.90
2018-06-28T21:57:31.838Z,99.90
2018-06-28T22:00:00.638Z,99.90
2018-06-28T22:02:36.233Z,99.90
2018-06-28T22:05:04.987Z,99.90
2018-06-28T22:07:33.845Z,99.90
2018-06-28T22:10:02.662Z,99.90
2018-06-28T22:12:30.906Z,99.90
2018-06-28T22:15:04.102Z,99.90
2018-06-28T22:17:32.359Z,99.90
2018-06-28T22:20:05.514Z,99.90
2018-06-28T22:22:35.827Z,99.90
2018-06-28T22:25:04.101Z,99.90
2018-06-28T22:27:32.310Z,99.90
2018-06-28T22:30:00.677Z,99.90
2018-06-28T22:32:41.918Z,99.90
2018-06-28T22:35:11.561Z,99.90
2018-06-28T22:37:39.748Z,99.90
2018-06-28T22:40:07.989Z,99.90
2018-06-28T22:42:36.393Z,99.90
2018-06-28T22:45:12.708Z,99.90
2018-06-28T22:47:40.912Z,99.90
2018-06-28T22:50:09.181Z,99.90
2018-06-28T22:52:42.103Z,99.90
2018-06-28T22:55:13.893Z,99.90
2018-06-28T22:57:42.325Z,99.90
2018-06-28T23:00:10.541Z,99.90
2018-06-28T23:02:39.317Z,99.90
2018-06-28T23:05:07.525Z,99.90
2018-06-28T23:07:35.697Z,99.90
2018-06-28T23:10:06.045Z,99.90
2018-06-28T23:12:34.260Z,99.90
2018-06-28T23:15:03.458Z,99.90
2018-06-28T23:17:31.633Z,99.90
2018-06-28T23:20:01.919Z,99.90
2018-06-28T23:22:40.416Z,99.90
2018-06-28T23:25:08.607Z,99.90
2018-06-28T23:27:36.878Z,99.90
2018-06-28T23:30:05.152Z,99.90
2018-06-28T23:32:33.389Z,99.90
2018-06-28T23:35:01.644Z,99.90
2018-06-28T23:37:31.029Z,99.90
2018-06-28T23:39:59.257Z,99.90
2018-06-28T23:42:27.456Z,99.90
2018-06-28T23:44:57.706Z,99.90
2018-06-28T23:47:26.903Z,99.90
2018-06-28T23:49:56.103Z,99.90
2018-06-28T23:52:24.291Z,99.90
2018-06-28T23:54:52.719Z,99.90
2018-06-28T23:57:20.954Z,99.90
